createdAt,value
2024-01-05T00:01:08.894Z,96786.50
2024-01-05T00:03:36.063Z,96778.66
2024-01-05T00:06:03.185Z,96778.19
2024-01-05T00:08:30.135Z,96770.03
2024-01-05T00:10:57.162Z,96786.31
2024-01-05T00:13:24.259Z,96789.66
2024-01-05T00:15:51.180Z,96792.59
2024-01-05T00:18:18.140Z,96797.03
2024-01-05T00:20:45.084Z,96794.69
2024-01-05T00:23:12.119Z,96792.31
2024-01-05T00:25:39.177Z,96791.47
2024-01-05T00:28:06.224Z,96790.72
2024-01-05T00:30:36.321Z,96793.66
2024-01-05T00:33:03.739Z,96797.19
2024-01-05T00:35:30.735Z,96801.81
2024-01-05T00:37:57.582Z,96808.31
2024-01-05T00:40:24.631Z,96819.72
2024-01-05T00:42:52.352Z,96817.25
2024-01-05T00:45:19.316Z,96810.88
2024-01-05T00:47:49.032Z,96814.56
2024-01-05T00:50:16.090Z,96819.72
2024-01-05T00:52:42.999Z,96815.59
2024-01-05T00:55:14.377Z,96807.88
2024-01-05T00:57:41.357Z,96811.41
2024-01-05T01:00:10.780Z,96816.84
2024-01-05T01:02:38.477Z,96808.53
2024-01-05T01:05:06.191Z,96810.84
2024-01-05T01:07:33.324Z,96810.91
2024-01-05T01:10:00.276Z,96820.09
2024-01-05T01:12:28.801Z,96808.97
2024-01-05T01:14:55.701Z,96827.66
2024-01-05T01:17:23.565Z,96810.44
2024-01-05T01:19:50.698Z,96824.47
2024-01-05T01:22:17.561Z,96822.97
2024-01-05T01:24:44.434Z,96821.38
2024-01-05T01:27:11.309Z,96841.69
2024-01-05T01:29:38.312Z,96834.25
2024-01-05T01:32:05.248Z,96836.84
2024-01-05T01:34:32.082Z,96837.84
2024-01-05T01:36:59.029Z,96838.50
2024-01-05T01:39:25.918Z,96849.69
2024-01-05T01:41:52.828Z,96849.69
2024-01-05T01:44:19.673Z,96857.38
2024-01-05T01:46:46.983Z,96859.16
2024-01-05T01:49:14.140Z,96864.56
2024-01-05T01:51:42.346Z,96854.03
2024-01-05T01:54:09.468Z,96869.97
2024-01-05T01:56:38.013Z,96865.22
2024-01-05T01:59:06.601Z,96868.38
2024-01-05T02:01:34.556Z,96871.63
2024-01-05T02:04:05.286Z,96877.13
2024-01-05T02:06:32.965Z,96874.34
2024-01-05T02:09:00.125Z,96877.69
2024-01-05T02:11:27.533Z,96874.00
2024-01-05T02:13:54.485Z,96882.88
2024-01-05T02:16:21.367Z,96886.88
2024-01-05T02:18:53.740Z,96885.63
2024-01-05T02:21:25.529Z,96893.72
2024-01-05T02:23:52.840Z,96894.88
2024-01-05T02:26:19.805Z,96887.78
2024-01-05T02:28:46.791Z,96903.09
2024-01-05T02:31:13.734Z,96897.31
2024-01-05T02:33:40.984Z,96900.84
2024-01-05T02:36:08.660Z,96910.94
2024-01-05T02:38:35.563Z,96891.19
2024-01-05T02:41:02.974Z,96903.41
2024-01-05T02:43:30.047Z,96901.09
2024-01-05T02:45:56.984Z,96902.09
2024-01-05T02:48:23.902Z,96897.25
2024-01-05T02:50:50.883Z,96895.75
2024-01-05T02:53:17.719Z,96900.94
2024-01-05T02:55:44.691Z,96906.28
2024-01-05T02:58:11.491Z,96905.56
2024-01-05T03:00:38.653Z,96900.44
2024-01-05T03:03:06.683Z,96907.47
2024-01-05T03:05:33.793Z,96900.81
2024-01-05T03:08:00.684Z,96910.31
2024-01-05T03:10:27.562Z,96909.47
2024-01-05T03:12:54.495Z,96914.19
2024-01-05T03:15:21.280Z,96905.66
2024-01-05T03:17:49.568Z,96907.66
2024-01-05T03:20:18.993Z,96915.59
2024-01-05T03:22:45.804Z,96910.56
2024-01-05T03:25:12.894Z,96915.84
2024-01-05T03:27:39.742Z,96917.09
2024-01-05T03:30:07.958Z,96923.25
2024-01-05T03:32:35.148Z,96921.81
2024-01-05T03:35:02.086Z,96917.47
2024-01-05T03:37:29.080Z,96928.03
2024-01-05T03:39:55.846Z,96928.19
2024-01-05T03:42:22.726Z,96930.16
2024-01-05T03:44:49.599Z,96946.03
2024-01-05T03:47:16.412Z,96945.09
2024-01-05T03:49:43.459Z,96953.00
2024-01-05T03:52:10.958Z,96963.53
2024-01-05T03:54:37.866Z,96966.72
2024-01-05T03:57:04.864Z,96973.72
2024-01-05T03:59:31.935Z,96977.28
2024-01-05T04:01:58.709Z,96983.38
2024-01-05T04:04:25.659Z,96984.38
2024-01-05T04:06:52.818Z,96989.72
2024-01-05T04:09:19.785Z,96992.47
2024-01-05T04:11:47.062Z,97002.03
2024-01-05T04:14:19.105Z,97002.28
2024-01-05T04:16:46.335Z,97004.72
2024-01-05T04:19:13.683Z,96991.09
2024-01-05T04:21:40.801Z,97005.38
2024-01-05T04:24:07.712Z,97003.09
2024-01-05T04:26:35.020Z,97008.56
2024-01-05T04:29:01.895Z,97004.34
2024-01-05T04:31:29.199Z,97011.41
2024-01-05T04:33:56.865Z,97010.47
2024-01-05T04:36:23.882Z,97020.16
2024-01-05T04:38:50.748Z,97022.72
2024-01-05T04:41:18.098Z,97031.16
2024-01-05T04:43:45.972Z,97029.50
2024-01-05T04:46:13.010Z,97040.16
2024-01-05T04:48:40.166Z,97041.16
2024-01-05T04:51:07.220Z,97042.06
2024-01-05T04:53:34.105Z,97049.28
2024-01-05T04:56:00.924Z,97046.84
2024-01-05T04:58:27.780Z,97050.94
2024-01-05T05:00:55.582Z,97067.44
2024-01-05T05:03:22.684Z,97064.41
2024-01-05T05:05:49.888Z,97066.47
2024-01-05T05:08:16.854Z,97076.25
2024-01-05T05:10:44.039Z,97075.50
2024-01-05T05:13:11.332Z,97080.69
2024-01-05T05:15:39.089Z,97089.25
2024-01-05T05:18:06.393Z,97086.91
2024-01-05T05:20:33.492Z,97102.47
2024-01-05T05:23:00.427Z,97098.44
2024-01-05T05:25:27.820Z,97105.88
2024-01-05T05:27:57.223Z,97094.03
2024-01-05T05:30:25.216Z,97103.63
2024-01-05T05:32:52.265Z,97102.94
2024-01-05T05:35:19.270Z,97114.97
2024-01-05T05:37:46.298Z,97116.81
2024-01-05T05:40:16.105Z,97108.28
2024-01-05T05:42:42.974Z,97125.31
2024-01-05T05:45:10.235Z,97123.59
2024-01-05T05:47:38.926Z,97129.03
2024-01-05T05:50:07.783Z,97127.16
2024-01-05T05:52:36.328Z,97132.47
2024-01-05T05:55:03.418Z,97138.31
2024-01-05T05:57:30.877Z,97151.47
2024-01-05T05:59:58.011Z,97142.00
2024-01-05T06:02:24.765Z,97147.97
2024-01-05T06:04:51.766Z,97153.13
2024-01-05T06:07:18.615Z,97150.41
2024-01-05T06:09:45.515Z,97167.84
2024-01-05T06:12:12.389Z,97167.09
2024-01-05T06:14:39.813Z,97159.97
2024-01-05T06:17:06.730Z,97165.06
2024-01-05T06:19:33.581Z,97154.66
2024-01-05T06:22:01.487Z,97163.19
2024-01-05T06:24:29.585Z,97171.69
2024-01-05T06:26:56.533Z,97170.16
2024-01-05T06:29:23.340Z,97180.34
2024-01-05T06:31:50.106Z,97180.09
2024-01-05T06:34:17.402Z,97178.47
2024-01-05T06:36:44.517Z,97175.06
2024-01-05T06:39:12.594Z,97174.84
2024-01-05T06:41:39.582Z,97168.69
2024-01-05T06:44:06.457Z,97170.50
2024-01-05T06:46:33.341Z,97171.41
2024-01-05T06:49:00.610Z,97167.69
2024-01-05T06:51:31.578Z,97167.78
2024-01-05T06:53:59.310Z,97180.13
2024-01-05T06:56:28.725Z,97173.00
2024-01-05T06:58:56.884Z,97191.09
2024-01-05T07:01:24.340Z,97184.31
2024-01-05T07:03:51.434Z,97178.09
2024-01-05T07:06:18.414Z,97189.13
2024-01-05T07:08:45.190Z,97187.44
2024-01-05T07:11:22.878Z,97187.00
2024-01-05T07:13:50.588Z,97178.03
2024-01-05T07:16:19.016Z,97168.31
2024-01-05T07:18:47.560Z,97173.28
2024-01-05T07:21:15.400Z,97171.28
2024-01-05T07:23:42.777Z,97173.53
2024-01-05T07:26:10.471Z,97170.47
2024-01-05T07:28:41.502Z,97181.25
2024-01-05T07:31:09.753Z,97184.34
2024-01-05T07:33:36.881Z,97184.31
2024-01-05T07:36:09.941Z,97193.28
2024-01-05T07:38:37.153Z,97185.13
2024-01-05T07:41:04.176Z,97178.81
2024-01-05T07:43:31.913Z,97174.97
2024-01-05T07:45:58.822Z,97195.22
2024-01-05T07:48:25.800Z,97189.88
2024-01-05T07:50:52.735Z,97189.22
2024-01-05T07:53:19.530Z,97194.25
2024-01-05T07:55:46.486Z,97198.97
2024-01-05T07:58:13.286Z,97190.94
2024-01-05T08:00:40.878Z,97199.81
2024-01-05T08:03:07.923Z,97204.25
2024-01-05T08:05:34.895Z,97214.22
2024-01-05T08:08:01.851Z,97220.84
2024-01-05T08:10:28.726Z,97218.38
2024-01-05T08:12:55.820Z,97213.53
2024-01-05T08:15:22.835Z,97204.50
2024-01-05T08:17:49.542Z,97208.31
2024-01-05T08:20:16.715Z,97203.47
2024-01-05T08:22:43.770Z,97208.22
2024-01-05T08:25:10.674Z,97219.50
2024-01-05T08:27:38.383Z,97210.06
2024-01-05T08:30:06.146Z,97211.84
2024-01-05T08:32:36.297Z,97202.88
2024-01-05T08:35:03.974Z,97202.25
2024-01-05T08:37:31.440Z,97200.56
2024-01-05T08:39:58.355Z,97209.31
2024-01-05T08:42:28.382Z,97205.44
2024-01-05T08:44:58.614Z,97209.50
2024-01-05T08:47:25.505Z,97203.00
2024-01-05T08:49:52.287Z,97206.59
2024-01-05T08:52:19.224Z,97202.72
2024-01-05T08:54:47.432Z,97197.28
2024-01-05T08:57:15.697Z,97196.66
2024-01-05T08:59:43.713Z,97195.63
2024-01-05T09:02:10.736Z,97196.28
2024-01-05T09:04:38.185Z,97202.34
2024-01-05T09:07:05.684Z,97190.06
2024-01-05T09:09:32.722Z,97192.38
2024-01-05T09:12:00.418Z,97187.44
2024-01-05T09:14:27.173Z,97189.00
2024-01-05T09:16:54.043Z,97175.50
2024-01-05T09:19:24.754Z,97175.03
2024-01-05T09:21:52.870Z,97186.53
2024-01-05T09:24:19.717Z,97186.19
2024-01-05T09:26:47.967Z,97180.88
2024-01-05T09:29:14.715Z,97170.13
2024-01-05T09:31:47.010Z,97174.34
2024-01-05T09:34:14.815Z,97175.91
2024-01-05T09:36:42.810Z,97172.75
2024-01-05T09:39:10.555Z,97175.00
2024-01-05T09:41:39.248Z,97169.22
2024-01-05T09:44:06.530Z,97165.28
2024-01-05T09:46:35.196Z,97169.31
2024-01-05T09:49:05.283Z,97161.22
2024-01-05T09:51:32.553Z,97158.94
2024-01-05T09:54:00.666Z,97156.78
2024-01-05T09:56:28.478Z,97148.50
2024-01-05T09:58:57.099Z,97150.84
2024-01-05T10:01:32.268Z,97148.19
2024-01-05T10:04:03.117Z,97145.75
2024-01-05T10:06:31.846Z,97137.25
2024-01-05T10:09:00.418Z,97135.41
2024-01-05T10:11:37.767Z,97130.41
2024-01-05T10:14:09.292Z,97123.41
2024-01-05T10:16:38.853Z,97119.19
2024-01-05T10:19:16.408Z,97123.78
2024-01-05T10:21:45.362Z,97120.91
2024-01-05T10:24:17.518Z,97118.03
2024-01-05T10:26:46.846Z,97111.34
2024-01-05T10:29:15.866Z,97113.03
2024-01-05T10:31:42.835Z,97107.53
2024-01-05T10:34:10.260Z,97103.13
2024-01-05T10:36:37.406Z,97098.09
2024-01-05T10:39:05.336Z,97088.84
2024-01-05T10:41:32.175Z,97088.22
2024-01-05T10:43:59.744Z,97077.03
2024-01-05T10:46:26.776Z,97080.78
2024-01-05T10:48:57.796Z,97080.50
2024-01-05T10:51:25.522Z,97065.47
2024-01-05T10:53:53.151Z,97073.38
2024-01-05T10:56:24.942Z,97057.47
2024-01-05T10:58:51.812Z,97058.41
2024-01-05T11:01:23.061Z,97050.81
2024-01-05T11:03:52.646Z,97054.13
2024-01-05T11:06:20.195Z,97048.59
2024-01-05T11:09:01.593Z,97048.28
2024-01-05T11:12:10.672Z,97053.69
2024-01-05T11:15:15.299Z,97052.84
2024-01-05T11:17:55.961Z,97048.88
2024-01-05T11:20:50.688Z,97053.69
2024-01-05T11:23:20.937Z,97054.75
2024-01-05T11:25:48.180Z,97054.75
2024-01-05T11:28:38.106Z,97054.75
2024-01-05T11:31:06.044Z,97054.75
2024-01-05T11:33:50.048Z,97038.75
2024-01-05T11:36:50.998Z,97034.34
2024-01-05T11:39:45.672Z,97022.50
2024-01-05T11:42:35.029Z,97033.59
2024-01-05T11:45:11.183Z,97038.84
2024-01-05T11:47:48.238Z,97029.75
2024-01-05T11:50:35.485Z,97028.16
2024-01-05T11:53:24.876Z,97020.66
2024-01-05T11:56:04.533Z,97011.47
2024-01-05T11:58:40.096Z,97012.63
2024-01-05T12:01:11.327Z,97004.53
2024-01-05T12:03:43.040Z,96992.56
2024-01-05T12:06:11.875Z,96997.00
2024-01-05T12:08:41.360Z,97000.09
2024-01-05T12:11:10.045Z,97003.63
2024-01-05T12:13:38.975Z,97013.44
2024-01-05T12:16:08.735Z,97011.97
2024-01-05T12:18:49.545Z,97015.72
2024-01-05T12:21:19.241Z,97023.41
2024-01-05T12:23:57.673Z,97027.94
2024-01-05T12:26:26.068Z,97028.88
2024-01-05T12:28:53.287Z,97023.09
2024-01-05T12:31:21.425Z,97023.94
2024-01-05T12:36:50.196Z,97025.97
2024-01-05T12:39:17.062Z,97025.75
2024-01-05T12:41:47.353Z,97030.03
2024-01-05T12:44:17.181Z,97021.28
2024-01-05T12:46:45.562Z,97022.28
2024-01-05T12:49:26.924Z,97017.38
2024-01-05T12:51:54.665Z,97021.09
2024-01-05T12:54:23.535Z,97021.03
2024-01-05T12:56:52.690Z,97023.50
2024-01-05T12:59:23.635Z,97027.78
2024-01-05T13:02:05.893Z,97023.66
2024-01-05T13:04:40.575Z,97021.53
2024-01-05T13:07:11.096Z,97024.00
2024-01-05T13:09:38.173Z,97013.53
2024-01-05T13:12:05.785Z,97014.22
2024-01-05T13:14:32.759Z,97013.91
2024-01-05T13:16:59.472Z,97012.59
2024-01-05T13:19:26.745Z,97009.81
2024-01-05T13:21:53.599Z,97013.28
2024-01-05T13:24:20.628Z,97020.53
2024-01-05T13:26:47.525Z,97019.19
2024-01-05T13:29:14.345Z,97013.19
2024-01-05T13:31:41.288Z,97023.25
2024-01-05T13:34:08.735Z,97010.53
2024-01-05T13:36:35.628Z,97010.22
2024-01-05T13:39:03.763Z,97024.50
2024-01-05T13:41:30.502Z,97030.50
2024-01-05T13:43:57.330Z,97031.25
2024-01-05T13:46:25.115Z,97033.75
2024-01-05T13:48:52.286Z,97043.25
2024-01-05T13:51:25.208Z,97041.78
2024-01-05T13:53:51.870Z,97038.72
2024-01-05T13:56:19.229Z,97039.28
2024-01-05T13:58:46.148Z,97040.09
2024-01-05T14:01:12.968Z,97048.97
2024-01-05T14:03:40.128Z,97045.09
2024-01-05T14:06:13.360Z,97061.66
2024-01-05T14:08:41.233Z,97055.13
2024-01-05T14:11:16.277Z,97055.75
2024-01-05T14:13:43.143Z,97057.72
2024-01-05T14:16:12.788Z,97059.13
2024-01-05T14:18:39.926Z,97063.84
2024-01-05T14:21:07.263Z,97064.09
2024-01-05T14:23:36.854Z,97069.84
2024-01-05T14:26:11.647Z,97069.84
2024-01-05T14:28:46.137Z,97073.91
2024-01-05T14:31:25.997Z,97086.25
2024-01-05T14:33:53.079Z,97082.56
2024-01-05T14:36:20.169Z,97093.28
2024-01-05T14:38:47.122Z,97096.22
2024-01-05T14:41:13.812Z,97093.75
2024-01-05T14:43:40.729Z,97097.66
2024-01-05T14:46:11.239Z,97109.75
2024-01-05T14:48:39.000Z,97105.50
2024-01-05T14:51:06.502Z,97101.00
2024-01-05T14:53:35.213Z,97095.38
2024-01-05T14:56:02.795Z,97094.09
2024-01-05T14:58:30.120Z,97092.56
2024-01-05T15:00:57.364Z,97093.41
2024-01-05T15:03:25.704Z,97093.44
2024-01-05T15:05:52.712Z,97102.72
2024-01-05T15:08:19.545Z,97102.25
2024-01-05T15:10:46.387Z,97102.94
2024-01-05T15:13:13.165Z,97105.56
2024-01-05T15:15:40.162Z,97108.75
2024-01-05T15:18:07.351Z,97109.81
2024-01-05T15:20:35.585Z,97119.78
2024-01-05T15:23:02.867Z,97120.47
2024-01-05T15:25:29.798Z,97119.56
2024-01-05T15:27:57.950Z,97129.63
2024-01-05T15:30:25.120Z,97123.41
2024-01-05T15:32:51.933Z,97132.66
2024-01-05T15:35:21.156Z,97133.09
2024-01-05T15:37:47.907Z,97126.16
2024-01-05T15:40:22.344Z,97136.50
2024-01-05T15:43:00.913Z,97135.31
2024-01-05T15:45:30.133Z,97130.72
2024-01-05T15:47:57.076Z,97138.28
2024-01-05T15:50:25.332Z,97135.59
2024-01-05T15:52:52.117Z,97126.72
2024-01-05T15:55:21.234Z,97133.53
2024-01-05T15:57:48.024Z,97145.31
2024-01-05T16:00:15.737Z,97145.03
2024-01-05T16:02:44.477Z,97147.13
2024-01-05T16:05:12.201Z,97160.75
2024-01-05T16:07:39.349Z,97148.38
2024-01-05T16:10:06.901Z,97162.44
2024-01-05T16:12:34.118Z,97161.06
2024-01-05T16:15:01.151Z,97154.78
2024-01-05T16:17:37.175Z,97152.19
2024-01-05T16:20:04.384Z,97162.16
2024-01-05T16:22:34.216Z,97169.66
2024-01-05T16:25:01.023Z,97165.41
2024-01-05T16:27:28.017Z,97174.97
2024-01-05T16:29:55.179Z,97164.56
2024-01-05T16:32:22.043Z,97172.66
2024-01-05T16:34:49.117Z,97175.13
2024-01-05T16:37:16.107Z,97179.63
2024-01-05T16:39:45.920Z,97181.13
2024-01-05T16:42:13.238Z,97178.28
2024-01-05T16:44:43.308Z,97185.59
2024-01-05T16:47:10.160Z,97180.69
2024-01-05T16:49:37.483Z,97177.97
2024-01-05T16:52:04.634Z,97179.09
2024-01-05T16:54:31.872Z,97186.50
2024-01-05T16:56:59.584Z,97180.03
2024-01-05T16:59:26.303Z,97175.66
2024-01-05T17:01:53.177Z,97166.69
2024-01-05T17:04:25.510Z,97163.34
2024-01-05T17:06:53.675Z,97182.38
2024-01-05T17:09:21.030Z,97183.50
2024-01-05T17:11:48.073Z,97185.75
2024-01-05T17:14:14.916Z,97180.19
2024-01-05T17:16:41.750Z,97171.00
2024-01-05T17:19:09.811Z,97171.19
2024-01-05T17:21:41.458Z,97179.56
2024-01-05T17:24:08.554Z,97177.84
2024-01-05T17:26:39.974Z,97171.03
2024-01-05T17:29:07.565Z,97172.50
2024-01-05T17:31:34.603Z,97167.31
2024-01-05T17:34:01.777Z,97163.16
2024-01-05T17:36:40.756Z,97164.53
2024-01-05T17:39:07.934Z,97153.13
2024-01-05T17:41:36.076Z,97152.47
2024-01-05T17:44:03.061Z,97153.50
2024-01-05T17:46:29.781Z,97156.13
2024-01-05T17:49:00.089Z,97165.13
2024-01-05T17:51:33.629Z,97162.16
2024-01-05T17:54:02.071Z,97168.09
2024-01-05T17:56:45.735Z,97165.66
2024-01-05T17:59:12.925Z,97155.75
2024-01-05T18:01:44.648Z,97151.41
2024-01-05T18:04:13.247Z,97166.25
2024-01-05T18:06:41.228Z,97156.78
2024-01-05T18:09:08.738Z,97151.78
2024-01-05T18:11:35.732Z,97156.41
2024-01-05T18:14:11.111Z,97155.09
2024-01-05T18:16:38.343Z,97152.50
2024-01-05T18:19:10.025Z,97154.09
2024-01-05T18:21:43.415Z,97154.25
2024-01-05T18:24:10.817Z,97144.91
2024-01-05T18:26:38.822Z,97149.06
2024-01-05T18:29:16.964Z,97154.91
2024-01-05T18:31:53.854Z,97156.59
2024-01-05T18:34:33.207Z,97159.94
2024-01-05T18:37:00.363Z,97148.22
2024-01-05T18:39:27.429Z,97146.41
2024-01-05T18:41:54.258Z,97148.69
2024-01-05T18:44:21.367Z,97149.34
2024-01-05T18:46:50.549Z,97136.34
2024-01-05T18:49:19.443Z,97152.13
2024-01-05T18:51:46.779Z,97149.53
2024-01-05T18:54:17.015Z,97143.56
2024-01-05T18:56:47.050Z,97157.50
2024-01-05T18:59:14.041Z,97152.31
2024-01-05T19:01:42.761Z,97163.84
2024-01-05T19:04:09.859Z,97168.09
2024-01-05T19:06:37.138Z,97174.13
2024-01-05T19:09:03.976Z,97171.81
2024-01-05T19:11:30.923Z,97164.84
2024-01-05T19:13:57.846Z,97171.63
2024-01-05T19:16:24.854Z,97168.09
2024-01-05T19:18:52.526Z,97165.50
2024-01-05T19:21:19.797Z,97152.50
2024-01-05T19:23:46.713Z,97149.19
2024-01-05T19:26:22.088Z,97153.53
2024-01-05T19:28:52.072Z,97144.34
2024-01-05T19:31:19.100Z,97163.06
2024-01-05T19:33:45.932Z,97147.88
2024-01-05T19:36:16.094Z,97147.31
2024-01-05T19:38:43.747Z,97130.81
2024-01-05T19:41:10.636Z,97132.63
2024-01-05T19:43:40.882Z,97136.53
2024-01-05T19:46:08.239Z,97130.34
2024-01-05T19:48:38.465Z,97121.69
2024-01-05T19:51:07.829Z,97118.53
2024-01-05T19:53:36.146Z,97127.91
2024-01-05T19:56:03.593Z,97122.06
2024-01-05T19:58:30.880Z,97122.53
2024-01-05T20:00:58.055Z,97129.50
2024-01-05T20:03:25.439Z,97110.44
2024-01-05T20:05:52.445Z,97110.72
2024-01-05T20:08:20.206Z,97113.03
2024-01-05T20:10:48.422Z,97096.72
2024-01-05T20:13:15.803Z,97112.13
2024-01-05T20:15:50.096Z,97087.00
2024-01-05T20:18:17.116Z,97109.25
2024-01-05T20:20:44.434Z,97106.84
2024-01-05T20:23:11.255Z,97110.72
2024-01-05T20:25:41.489Z,97109.63
2024-01-05T20:28:08.448Z,97109.63
2024-01-05T20:30:35.441Z,97107.59
2024-01-05T20:33:02.460Z,97103.75
2024-01-05T20:35:29.386Z,97103.69
2024-01-05T20:37:56.757Z,97112.59
2024-01-05T20:40:23.818Z,97113.69
2024-01-05T20:42:50.727Z,97117.03
2024-01-05T20:45:17.657Z,97108.66
2024-01-05T20:47:44.611Z,97104.38
2024-01-05T20:50:11.566Z,97099.38
2024-01-05T20:52:39.227Z,97096.59
2024-01-05T20:55:06.472Z,97106.25
2024-01-05T20:57:33.257Z,97095.38
2024-01-05T21:00:00.757Z,97093.81
2024-01-05T21:02:27.600Z,97081.56
2024-01-05T21:04:55.046Z,97094.72
2024-01-05T21:07:23.060Z,97082.03
2024-01-05T21:09:49.961Z,97083.66
2024-01-05T21:12:16.972Z,97082.84
2024-01-05T21:14:43.876Z,97090.63
2024-01-05T21:17:10.719Z,97077.06
2024-01-05T21:19:41.349Z,97077.81
2024-01-05T21:22:08.611Z,97067.50
2024-01-05T21:24:41.030Z,97064.72
2024-01-05T21:27:10.872Z,97064.25
2024-01-05T21:29:46.093Z,97063.06
2024-01-05T21:32:13.999Z,97060.34
2024-01-05T21:34:42.404Z,97054.94
2024-01-05T21:37:10.481Z,97046.47
2024-01-05T21:39:37.874Z,97048.22
2024-01-05T21:42:06.155Z,97039.28
2024-01-05T21:44:33.079Z,97041.06
2024-01-05T21:47:01.653Z,97040.25
2024-01-05T21:49:29.625Z,97033.56
2024-01-05T21:51:57.493Z,97030.66
2024-01-05T21:54:27.198Z,97035.75
2024-01-05T21:56:54.401Z,97026.47
2024-01-05T21:59:21.450Z,97033.06
2024-01-05T22:01:48.673Z,97023.69
2024-01-05T22:04:19.050Z,97020.69
2024-01-05T22:06:46.175Z,97014.13
2024-01-05T22:09:13.321Z,97013.16
2024-01-05T22:11:47.025Z,97021.91
2024-01-05T22:14:27.468Z,97015.63
2024-01-05T22:16:55.844Z,97008.38
2024-01-05T22:19:22.897Z,97002.56
2024-01-05T22:21:49.913Z,97001.09
2024-01-05T22:24:16.829Z,96987.34
2024-01-05T22:26:43.792Z,96989.00
2024-01-05T22:29:10.703Z,96987.59
2024-01-05T22:31:37.784Z,96989.84
2024-01-05T22:34:04.717Z,97007.13
2024-01-05T22:36:31.741Z,96990.47
2024-01-05T22:38:58.815Z,96989.53
2024-01-05T22:41:25.693Z,96981.63
2024-01-05T22:43:53.765Z,96986.75
2024-01-05T22:46:23.598Z,96973.19
2024-01-05T22:48:51.000Z,96983.59
2024-01-05T22:51:25.882Z,96970.19
2024-01-05T22:53:53.109Z,96960.75
2024-01-05T22:56:21.334Z,96957.00
2024-01-05T22:58:48.094Z,96957.84
2024-01-05T23:01:22.482Z,96950.34
2024-01-05T23:03:50.488Z,96938.38
2024-01-05T23:06:17.454Z,96946.91
2024-01-05T23:08:44.481Z,96938.28
2024-01-05T23:11:11.808Z,96945.78
2024-01-05T23:13:38.907Z,96950.59
2024-01-05T23:16:05.927Z,96929.13
2024-01-05T23:18:32.706Z,96925.63
2024-01-05T23:20:59.477Z,96924.75
2024-01-05T23:23:26.290Z,96922.91
2024-01-05T23:25:53.146Z,96924.22
2024-01-05T23:28:20.048Z,96920.41
2024-01-05T23:30:48.371Z,96903.13
2024-01-05T23:33:15.447Z,96915.81
2024-01-05T23:35:42.434Z,96916.03
2024-01-05T23:38:09.279Z,96912.47
2024-01-05T23:40:36.137Z,96917.91
2024-01-05T23:43:03.293Z,96916.53
2024-01-05T23:45:30.260Z,96922.03
2024-01-05T23:47:57.028Z,96918.47
2024-01-05T23:50:24.245Z,96918.06
2024-01-05T23:52:51.045Z,96914.31
2024-01-05T23:55:17.886Z,96929.72
2024-01-05T23:57:44.968Z,96920.22
